Rockford, IL (61101)

3:02 AM CST on January 23, 2017 (GMT -0600)
Chateau | | Change Station
Active Advisory: Flood Warning

Elev 909 ft 42.31 °N, 89.10 °W | Updated 22 seconds ago

Overcast
Overcast
35.9 °F
Feels Like 36 °F
N
2.0
Wind Variable Wind from North

Today
High -- | Low -- °F
--% Chance of Precip.
Yesterday
High -- | Low -- °F
Precip. -- in
Pressure 29.77 in
Visibility 8.0 miles
Clouds Overcast 1100 ft
Windchill 36 °F
Dew Point 35 °F
Humidity 98%
Rainfall 0.00 in
Snow Depth Not available.
7:17 AM 4:59 PM
Waning Crescent, 20% visible
METAR KRFD 230854Z 35007KT 8SM -DZ OVC011 03/02 A2976 RMK AO2 SLP080 P0000 60000 T00330017 56001
Pressure 29.77 in
Visibility 8.0 miles
Clouds Overcast 1100 ft
Windchill 36 °F
Dew Point 35 °F
Humidity 98%
Rainfall 0.00 in
Snow Depth Not available.
7:17 AM 4:59 PM
Waning Crescent, 20% visible
METAR KRFD 230854Z 35007KT 8SM -DZ OVC011 03/02 A2976 RMK AO2 SLP080 P0000 60000 T00330017 56001

Get Your Daily Forecast Email!

Thanks for signing up!

Be on the lookout for a verification email in your inbox.

You'll start receiving the daily forecast at 8 AM.

×

10-Day Weather Forecast

Almanac

Astronomy

Jan. 23, 2017 Rise Set
Actual Time
Civil Twilight
Nautical Twilight
Astronomical Twilight
Moon
Length of Visible Light
Length of Day
Tomorrow will be .
, % of the Moon is Illuminated

Today's Extremes

State Highs State Lows

Community

WunderPhotos

Upload Photos

1,962,540 photos uploaded!

WunderBlog® & News

Nearby

Air Quality

  Air Quality AQ Index Pollutant
Not available.

Snow Depth

Station Depth Elevation

Earthquake Activity

City Distance Mag. Time & Date
Minimum magnitude displayed is 2.5.

Coastal Water Temperatures

Place Temperature

Stations

Nearby Weather Stations

Station Location Temp. Windchill Dew Point Humidity Wind Precip. Elev Updated Type
                   

Watches & Warnings

Flood Warning
Issued: 9:17 PM CST Jan. 22, 2017 – National Weather Service

The Flood Warning continues for
the Pecatonica River near Shirland.
* Until Sunday January 29.
* At 900 PM Sunday the stage was 12.7 feet.
* Flood stage is 12.0 feet.
* Minor flooding is occurring and minor flooding is forecast.
* Forecast... the river will continue rising to near 12.9 feet by
Monday afternoon. The river will fall below flood stage Sunday
morning.
* Impact... at 12.0 feet... water overflows low lying areas near the
river.


Lat... Lon 4247 8922 4236 8940 4229 8934 4240 8917
      4242 8907 4249 8909


Izzi